Time;durP1;ratioP1;P1;durP2;ratioP2;P2;SDS_P1;SDS_P2;PMS_P1;PMS_P2;Temp;Humidity;BMP_temperature;BMP_pressure;BME280_temperature;BME280_humidity;BME280_pressure;Samples;Min_cycle;Max_cycle;Signal;HPM_P1;HPM_P2
2022/08/07 00:02:11;;;;;;;1.25;0.98;;;;;20.60;102586.00;;;;5048442;28;20216;-77
2022/08/07 00:04:39;;;;;;;1.38;1.20;;;;;20.60;102588.00;;;;5047894;28;20200;-77
2022/08/07 00:07:06;;;;;;;3.45;1.30;;;;;20.60;102589.00;;;;5046824;28;20203;-77
2022/08/07 00:09:34;;;;;;;2.75;1.13;;;;;20.60;102587.00;;;;5047399;28;20601;-77
2022/08/07 00:12:02;;;;;;;2.03;1.20;;;;;20.60;102584.00;;;;5047806;28;20207;-77
2022/08/07 00:14:30;;;;;;;1.80;1.48;;;;;20.50;102581.00;;;;5047182;28;20689;-76
2022/08/07 00:16:57;;;;;;;1.50;1.35;;;;;20.50;102574.00;;;;5039695;28;20195;-77
2022/08/07 00:19:27;;;;;;;2.58;1.65;;;;;20.50;102573.00;;;;5048496;28;20219;-77
2022/08/07 00:21:54;;;;;;;1.40;1.17;;;;;20.40;102572.00;;;;5048130;28;20205;-77
2022/08/07 00:24:21;;;;;;;1.42;1.23;;;;;20.40;102579.00;;;;5047732;28;20195;-77
2022/08/07 00:26:51;;;;;;;2.20;1.40;;;;;20.40;102568.00;;;;5047902;28;20199;-76
2022/08/07 00:29:21;;;;;;;1.50;1.20;;;;;20.40;102560.00;;;;5047738;28;20195;-76
2022/08/07 00:31:48;;;;;;;1.50;1.10;;;;;20.40;102568.00;;;;5048180;28;20198;-76
2022/08/07 00:34:15;;;;;;;1.80;1.10;;;;;20.30;102569.00;;;;5040681;28;20200;-77
2022/08/07 00:36:44;;;;;;;1.58;1.17;;;;;20.30;102560.00;;;;5047424;28;20191;-77
2022/08/07 00:39:12;;;;;;;2.65;1.58;;;;;20.30;102561.00;;;;5047470;28;20219;-76
2022/08/07 00:41:47;;;;;;;3.38;1.58;;;;;20.20;102555.00;;;;5047593;28;20203;-77
2022/08/07 00:44:16;;;;;;;2.38;1.75;;;;;20.20;102555.00;;;;5048371;28;20199;-77
2022/08/07 00:46:43;;;;;;;2.22;1.48;;;;;20.20;102551.00;;;;5046917;28;20222;-77
2022/08/07 00:49:11;;;;;;;2.40;1.20;;;;;20.20;102551.00;;;;5040516;28;20192;-77
2022/08/07 00:51:38;;;;;;;3.08;1.05;;;;;20.10;102545.00;;;;5045246;28;20215;-77
2022/08/07 00:54:06;;;;;;;1.95;1.30;;;;;20.10;102552.00;;;;5048731;28;20226;-77
2022/08/07 00:56:36;;;;;;;1.38;1.00;;;;;20.10;102544.00;;;;5047144;28;20192;-76
2022/08/07 00:59:04;;;;;;;1.58;1.10;;;;;20.10;102537.00;;;;5047770;28;20228;-76
2022/08/07 01:01:33;;;;;;;1.98;0.95;;;;;20.00;102535.00;;;;5046754;28;20215;-77
2022/08/07 01:04:04;;;;;;;0.82;0.70;;;;;20.00;102539.00;;;;5048147;28;20550;-76
2022/08/07 01:06:31;;;;;;;1.05;0.75;;;;;20.00;102542.00;;;;5046355;28;20192;-77
2022/08/07 01:08:59;;;;;;;0.70;0.60;;;;;20.00;102541.00;;;;5028246;28;20204;-77
2022/08/07 01:11:33;;;;;;;1.00;0.60;;;;;19.90;102545.00;;;;5041598;28;20200;-76
2022/08/07 01:14:01;;;;;;;0.85;0.68;;;;;19.90;102541.00;;;;5047241;28;20206;-76
2022/08/07 01:16:29;;;;;;;1.30;0.95;;;;;19.90;102536.00;;;;5047213;28;20322;-77
2022/08/07 01:18:58;;;;;;;0.80;0.60;;;;;19.90;102534.00;;;;5046705;28;20574;-76
2022/08/07 01:21:27;;;;;;;0.75;0.52;;;;;19.80;102535.00;;;;5047453;28;20224;-77
2022/08/07 01:23:56;;;;;;;0.90;0.60;;;;;19.80;102535.00;;;;5042896;28;20216;-76
2022/08/07 01:26:24;;;;;;;0.70;0.50;;;;;19.80;102540.00;;;;5041214;28;20207;-76
2022/08/07 01:28:53;;;;;;;1.00;0.60;;;;;19.80;102532.00;;;;5047278;28;20200;-76
2022/08/07 01:31:26;;;;;;;1.45;0.70;;;;;19.80;102531.00;;;;5047625;28;20196;-76
2022/08/07 01:33:54;;;;;;;0.95;0.60;;;;;19.70;102526.00;;;;5046729;28;20207;-77
2022/08/07 01:36:21;;;;;;;0.90;0.50;;;;;19.70;102522.00;;;;5048932;28;20199;-76
2022/08/07 01:38:50;;;;;;;0.50;0.45;;;;;19.70;102523.00;;;;5051284;28;20198;-76
2022/08/07 01:41:19;;;;;;;0.95;0.65;;;;;19.70;102522.00;;;;5048264;28;20223;-76
2022/08/07 01:43:48;;;;;;;0.57;0.43;;;;;19.70;102520.00;;;;5050750;28;20203;-77
2022/08/07 01:46:17;;;;;;;0.70;0.57;;;;;19.70;102520.00;;;;5050109;28;20689;-76
2022/08/07 01:48:45;;;;;;;0.50;0.43;;;;;19.60;102524.00;;;;5050330;28;20692;-77
2022/08/07 01:51:16;;;;;;;0.98;0.63;;;;;19.60;102511.00;;;;5042905;28;20218;-77
2022/08/07 01:53:47;;;;;;;1.17;0.80;;;;;19.60;102515.00;;;;5049788;28;20203;-76
2022/08/07 01:56:22;;;;;;;0.90;0.60;;;;;19.50;102520.00;;;;5049995;28;20194;-76
2022/08/07 01:58:52;;;;;;;1.25;0.70;;;;;19.50;102514.00;;;;5047695;28;20238;-77
2022/08/07 02:01:25;;;;;;;2.17;0.60;;;;;19.50;102518.00;;;;5050031;28;20219;-77
2022/08/07 02:03:57;;;;;;;1.77;0.70;;;;;19.50;102513.00;;;;5050122;28;20219;-77
2022/08/07 02:06:28;;;;;;;0.85;0.50;;;;;19.50;102520.00;;;;5050214;28;20196;-77
2022/08/07 02:08:57;;;;;;;1.80;0.73;;;;;19.50;102518.00;;;;5050108;28;20199;-77
2022/08/07 02:11:25;;;;;;;1.77;0.60;;;;;19.40;102515.00;;;;5048867;28;20192;-76
2022/08/07 02:13:55;;;;;;;1.13;0.57;;;;;19.40;102511.00;;;;5048900;28;20192;-77
2022/08/07 02:16:24;;;;;;;1.05;0.73;;;;;19.40;102520.00;;;;5048668;28;20211;-76
2022/08/07 02:18:52;;;;;;;1.15;0.60;;;;;19.40;102519.00;;;;5049766;28;20697;-77
2022/08/07 02:21:20;;;;;;;1.27;0.80;;;;;19.40;102517.00;;;;5048976;28;20222;-76
2022/08/07 02:23:49;;;;;;;0.77;0.60;;;;;19.40;102521.00;;;;5049469;28;20685;-77
2022/08/07 02:26:18;;;;;;;1.27;0.70;;;;;19.40;102519.00;;;;5049297;28;20196;-76
2022/08/07 02:28:48;;;;;;;1.27;0.75;;;;;19.30;102516.00;;;;5049775;28;20557;-76
2022/08/07 02:31:16;;;;;;;1.50;0.70;;;;;19.30;102508.00;;;;5048736;28;20198;-77
2022/08/07 02:33:44;;;;;;;1.48;0.80;;;;;19.30;102506.00;;;;5047469;28;20196;-77
2022/08/07 02:36:12;;;;;;;2.22;0.75;;;;;19.30;102506.00;;;;5049518;28;20282;-76
2022/08/07 02:38:41;;;;;;;1.38;0.60;;;;;19.30;102509.00;;;;5049667;28;20226;-76
2022/08/07 02:41:09;;;;;;;1.20;0.82;;;;;19.30;102507.00;;;;5049330;28;20307;-77
2022/08/07 02:43:38;;;;;;;1.02;0.80;;;;;19.30;102503.00;;;;5048532;28;20196;-76
2022/08/07 02:46:09;;;;;;;0.85;0.60;;;;;19.20;102503.00;;;;5048167;28;20210;-77
2022/08/07 02:48:37;;;;;;;0.70;0.50;;;;;19.20;102502.00;;;;5046338;28;20769;-77
2022/08/07 02:51:10;;;;;;;1.45;0.90;;;;;19.20;102507.00;;;;5049025;28;20200;-76
2022/08/07 02:53:40;;;;;;;3.08;1.05;;;;;19.20;102506.00;;;;5046608;28;20238;-77
2022/08/07 02:56:14;;;;;;;0.82;0.60;;;;;19.20;102499.00;;;;5039234;28;20670;-76
2022/08/07 02:58:43;;;;;;;1.63;0.80;;;;;19.20;102505.00;;;;5035242;28;20228;-77
2022/08/07 03:01:12;;;;;;;1.95;0.70;;;;;19.10;102508.00;;;;5041181;28;20234;-77
2022/08/07 03:03:41;;;;;;;1.52;0.70;;;;;19.10;102497.00;;;;5048511;28;20199;-76
2022/08/07 03:06:09;;;;;;;1.15;0.80;;;;;19.10;102495.00;;;;5046301;28;20188;-77
2022/08/07 03:08:37;;;;;;;1.15;0.63;;;;;19.10;102496.00;;;;5048822;28;20212;-76
2022/08/07 03:11:06;;;;;;;1.13;0.90;;;;;19.10;102498.00;;;;5048896;28;20199;-76
2022/08/07 03:13:33;;;;;;;1.48;0.80;;;;;19.10;102500.00;;;;5048845;28;20199;-77
2022/08/07 03:16:02;;;;;;;1.33;0.90;;;;;19.00;102494.00;;;;5048470;28;20199;-77
2022/08/07 03:18:31;;;;;;;1.13;0.75;;;;;19.00;102490.00;;;;5048110;28;20200;-77
2022/08/07 03:20:58;;;;;;;1.10;0.95;;;;;19.00;102495.00;;;;5048447;28;20223;-77
2022/08/07 03:23:27;;;;;;;1.15;0.93;;;;;19.00;102496.00;;;;5039798;28;20200;-77
2022/08/07 03:25:57;;;;;;;2.55;0.98;;;;;19.00;102494.00;;;;5044078;28;20211;-77
2022/08/07 03:28:24;;;;;;;1.15;1.05;;;;;19.00;102492.00;;;;5048231;28;20207;-77
2022/08/07 03:31:17;;;;;;;1.33;0.82;;;;;19.00;102496.00;;;;5048445;28;20203;-76
2022/08/07 03:33:44;;;;;;;2.60;0.82;;;;;18.90;102498.00;;;;5047641;28;20294;-77
2022/08/07 03:36:14;;;;;;;1.05;0.85;;;;;18.90;102496.00;;;;5047314;28;20195;-77
2022/08/07 03:38:42;;;;;;;1.17;0.63;;;;;18.90;102485.00;;;;5048205;28;20716;-77
2022/08/07 03:41:10;;;;;;;1.85;0.98;;;;;18.90;102489.00;;;;5046158;28;20223;-77
2022/08/07 03:43:38;;;;;;;1.20;0.90;;;;;18.90;102484.00;;;;5048197;28;20211;-77
2022/08/07 03:46:07;;;;;;;1.23;0.98;;;;;18.90;102490.00;;;;5047713;28;20644;-76
2022/08/07 03:48:35;;;;;;;1.38;0.75;;;;;18.90;102487.00;;;;5047882;28;20218;-77
2022/08/07 03:51:08;;;;;;;1.42;0.80;;;;;18.80;102487.00;;;;5047995;28;20673;-77
2022/08/07 03:53:36;;;;;;;1.25;0.82;;;;;18.80;102491.00;;;;5047200;28;20191;-77
2022/08/07 03:56:05;;;;;;;0.95;0.80;;;;;18.80;102487.00;;;;5047550;28;20195;-77
2022/08/07 03:58:32;;;;;;;1.17;1.00;;;;;18.80;102493.00;;;;5036040;28;20234;-76
2022/08/07 04:01:00;;;;;;;1.33;1.05;;;;;18.80;102491.00;;;;5048334;28;20215;-77
2022/08/07 04:03:28;;;;;;;1.30;1.20;;;;;18.80;102491.00;;;;5048451;28;20219;-76
2022/08/07 04:05:55;;;;;;;2.13;1.00;;;;;18.80;102486.00;;;;5032185;28;20195;-77
2022/08/07 04:08:24;;;;;;;1.52;1.00;;;;;18.70;102499.00;;;;5044280;28;20200;-76
2022/08/07 04:10:52;;;;;;;1.55;0.90;;;;;18.70;102491.00;;;;5048388;28;20207;-76
2022/08/07 04:13:21;;;;;;;1.58;1.25;;;;;18.70;102487.00;;;;5047830;28;20203;-76
2022/08/07 04:15:48;;;;;;;1.45;0.93;;;;;18.70;102489.00;;;;5040130;28;20658;-77
2022/08/07 04:18:16;;;;;;;1.23;0.85;;;;;18.70;102497.00;;;;5047176;28;20674;-76
2022/08/07 04:20:44;;;;;;;1.92;1.13;;;;;18.70;102497.00;;;;5048010;28;20226;-76
2022/08/07 04:23:12;;;;;;;1.10;0.93;;;;;18.70;102497.00;;;;5048067;28;20693;-77
2022/08/07 04:25:42;;;;;;;1.30;1.02;;;;;18.60;102491.00;;;;5048273;28;20202;-76
2022/08/07 04:28:11;;;;;;;1.67;0.95;;;;;18.60;102500.00;;;;5048099;28;20188;-77
2022/08/07 04:30:38;;;;;;;2.75;1.10;;;;;18.60;102502.00;;;;5045463;28;20207;-76
2022/08/07 04:33:07;;;;;;;2.38;1.25;;;;;18.60;102507.00;;;;5046219;28;20208;-76
2022/08/07 04:35:35;;;;;;;1.08;0.95;;;;;18.60;102510.00;;;;5047508;28;20203;-77
2022/08/07 04:38:06;;;;;;;1.08;0.95;;;;;18.60;102505.00;;;;5047571;28;20199;-77
2022/08/07 04:40:34;;;;;;;2.47;1.20;;;;;18.60;102507.00;;;;5046571;28;21108;-76
2022/08/07 04:43:03;;;;;;;1.80;0.98;;;;;18.60;102509.00;;;;5047439;28;20211;-76
2022/08/07 04:45:37;;;;;;;2.47;1.23;;;;;18.60;102506.00;;;;5047500;28;20199;-77
2022/08/07 04:48:10;;;;;;;2.75;0.88;;;;;18.60;102503.00;;;;5046288;28;20203;-77
2022/08/07 04:50:43;;;;;;;1.27;1.10;;;;;18.60;102503.00;;;;5046314;28;20203;-77
2022/08/07 04:53:17;;;;;;;1.00;0.70;;;;;18.60;102507.00;;;;5047120;28;20204;-77
2022/08/07 04:55:51;;;;;;;1.70;1.08;;;;;18.60;102508.00;;;;5047080;28;20206;-77
2022/08/07 04:58:24;;;;;;;1.30;1.10;;;;;18.60;102512.00;;;;5046651;28;20226;-77
2022/08/07 05:00:56;;;;;;;2.47;1.00;;;;;18.60;102507.00;;;;5046812;28;20227;-77
2022/08/07 05:03:29;;;;;;;1.98;1.42;;;;;18.70;102510.00;;;;5046892;28;20227;-76
2022/08/07 05:06:06;;;;;;;1.42;1.00;;;;;18.70;102511.00;;;;5043963;28;20199;-77
2022/08/07 05:08:41;;;;;;;1.08;0.93;;;;;18.70;102508.00;;;;5047405;28;20206;-76
2022/08/07 05:11:13;;;;;;;1.95;1.23;;;;;18.80;102512.00;;;;5050558;28;20218;-77
2022/08/07 05:13:49;;;;;;;1.15;0.93;;;;;18.70;102514.00;;;;5050819;28;20674;-76
2022/08/07 05:16:18;;;;;;;1.83;1.60;;;;;18.80;102511.00;;;;5050445;28;20681;-76
2022/08/07 05:18:50;;;;;;;1.27;1.10;;;;;18.90;102511.00;;;;5051315;28;20203;-77
2022/08/07 05:21:22;;;;;;;3.60;1.20;;;;;18.90;102508.00;;;;5050173;28;20219;-77
2022/08/07 05:23:53;;;;;;;1.50;1.20;;;;;19.00;102513.00;;;;5031367;28;20204;-77
2022/08/07 05:26:23;;;;;;;1.42;1.05;;;;;19.00;102510.00;;;;5045398;28;20689;-77
2022/08/07 05:28:54;;;;;;;1.35;1.10;;;;;19.10;102514.00;;;;5050763;28;20885;-77
2022/08/07 05:31:23;;;;;;;1.98;1.02;;;;;19.10;102513.00;;;;5050027;28;20569;-76
2022/08/07 05:33:52;;;;;;;1.67;1.48;;;;;19.20;102512.00;;;;5050291;28;20200;-77
2022/08/07 05:36:20;;;;;;;1.33;1.00;;;;;19.30;102522.00;;;;5050495;28;20203;-77
2022/08/07 05:38:49;;;;;;;1.15;0.93;;;;;19.30;102522.00;;;;5046819;28;20199;-77
2022/08/07 05:41:17;;;;;;;1.70;1.10;;;;;19.40;102520.00;;;;5043291;28;20604;-76
2022/08/07 05:43:48;;;;;;;1.23;0.95;;;;;19.50;102529.00;;;;5049496;28;20226;-77
2022/08/07 05:46:19;;;;;;;1.80;0.80;;;;;19.50;102524.00;;;;5050302;28;20192;-77
2022/08/07 05:48:48;;;;;;;1.15;0.98;;;;;19.60;102509.00;;;;5050431;28;20212;-77
2022/08/07 05:51:16;;;;;;;1.15;1.02;;;;;19.70;102517.00;;;;5049617;28;20203;-77
2022/08/07 05:53:44;;;;;;;1.30;1.20;;;;;19.80;102516.00;;;;5050104;28;20203;-77
2022/08/07 05:56:15;;;;;;;2.22;1.40;;;;;19.90;102518.00;;;;5043875;28;20208;-77
2022/08/07 05:58:45;;;;;;;1.92;1.50;;;;;20.00;102513.00;;;;5041550;28;20227;-76
2022/08/07 06:01:14;;;;;;;2.67;1.38;;;;;20.10;102518.00;;;;5049969;28;20218;-77
2022/08/07 06:03:48;;;;;;;1.45;1.25;;;;;20.20;102515.00;;;;5049503;28;20226;-77
2022/08/07 06:06:16;;;;;;;2.03;1.42;;;;;20.30;102520.00;;;;5049394;28;20195;-77
2022/08/07 06:08:44;;;;;;;2.90;1.60;;;;;20.40;102526.00;;;;5049995;28;20207;-76
2022/08/07 06:11:13;;;;;;;1.55;1.27;;;;;20.50;102527.00;;;;5049949;28;20204;-77
2022/08/07 06:13:40;;;;;;;2.13;1.52;;;;;20.60;102540.00;;;;5040069;28;20578;-77
2022/08/07 06:16:08;;;;;;;3.78;1.90;;;;;20.70;102538.00;;;;5049823;28;20196;-77
2022/08/07 06:18:36;;;;;;;2.10;1.83;;;;;20.80;102533.00;;;;5049304;28;20202;-77
2022/08/07 06:21:06;;;;;;;3.45;2.35;;;;;20.90;102519.00;;;;5049034;28;20231;-77
2022/08/07 06:23:33;;;;;;;2.78;2.05;;;;;21.00;102522.00;;;;5049094;28;20192;-77
2022/08/07 06:26:02;;;;;;;2.40;1.67;;;;;21.20;102528.00;;;;5048585;28;20563;-77
2022/08/07 06:28:29;;;;;;;2.63;1.92;;;;;21.30;102529.00;;;;5049674;28;20214;-77
2022/08/07 06:30:57;;;;;;;2.60;2.13;;;;;21.40;102540.00;;;;5048245;28;20210;-77
2022/08/07 06:33:25;;;;;;;2.88;2.20;;;;;21.50;102536.00;;;;5049810;28;20593;-77
2022/08/07 06:35:52;;;;;;;2.20;1.65;;;;;21.60;102533.00;;;;5048741;28;20203;-77
2022/08/07 06:38:21;;;;;;;2.05;1.75;;;;;21.70;102536.00;;;;5048884;28;20191;-77
2022/08/07 06:40:52;;;;;;;2.78;1.55;;;;;21.90;102534.00;;;;5038201;28;20199;-77
2022/08/07 06:43:23;;;;;;;2.55;1.85;;;;;22.00;102544.00;;;;5049446;28;20693;-78
2022/08/07 06:45:50;;;;;;;2.15;1.67;;;;;22.10;102533.00;;;;5049169;28;20211;-77
2022/08/07 06:48:18;;;;;;;3.50;2.00;;;;;22.20;102534.00;;;;5033421;28;20207;-77
2022/08/07 06:50:47;;;;;;;1.73;1.45;;;;;22.30;102527.00;;;;5045238;28;20199;-78
2022/08/07 06:53:15;;;;;;;2.53;2.05;;;;;22.40;102530.00;;;;5049855;28;20202;-77
2022/08/07 06:55:45;;;;;;;2.85;2.28;;;;;22.50;102532.00;;;;5048195;28;20220;-78
2022/08/07 06:58:13;;;;;;;2.42;2.17;;;;;22.60;102526.00;;;;5049279;28;20227;-77
2022/08/07 07:00:42;;;;;;;3.78;2.20;;;;;22.70;102521.00;;;;5048834;28;20203;-78
2022/08/07 07:03:10;;;;;;;4.00;2.03;;;;;22.90;102520.00;;;;5048644;28;20227;-78
2022/08/07 07:05:38;;;;;;;2.90;1.92;;;;;23.00;102522.00;;;;5046162;28;20770;-77
2022/08/07 07:08:07;;;;;;;2.58;1.90;;;;;23.10;102522.00;;;;5049666;28;20199;-77
2022/08/07 07:10:35;;;;;;;2.00;1.70;;;;;23.20;102530.00;;;;5049430;28;20204;-77
2022/08/07 07:13:11;;;;;;;3.05;2.20;;;;;23.30;102526.00;;;;5049242;28;20585;-78
2022/08/07 07:15:44;;;;;;;2.58;1.85;;;;;23.40;102530.00;;;;5048892;28;20222;-77
2022/08/07 07:18:17;;;;;;;3.75;1.80;;;;;23.50;102532.00;;;;5048927;28;20211;-78
2022/08/07 07:20:50;;;;;;;2.20;1.60;;;;;23.60;102534.00;;;;5032774;28;20201;-78
2022/08/07 07:23:19;;;;;;;1.85;1.33;;;;;23.70;102539.00;;;;5029099;28;20224;-77
2022/08/07 07:25:48;;;;;;;2.53;2.03;;;;;23.80;102542.00;;;;5046593;28;20573;-77
2022/08/07 07:28:20;;;;;;;2.47;1.85;;;;;23.90;102547.00;;;;5048849;28;20218;-78
2022/08/07 07:30:55;;;;;;;2.42;1.83;;;;;24.00;102543.00;;;;5048959;28;20200;-77
2022/08/07 07:33:24;;;;;;;1.50;1.23;;;;;24.20;102552.00;;;;5047779;28;20681;-78
2022/08/07 07:35:53;;;;;;;1.92;1.30;;;;;24.30;102553.00;;;;5048412;28;20211;-78
2022/08/07 07:38:24;;;;;;;1.30;1.10;;;;;24.40;102551.00;;;;5042939;28;20197;-78
2022/08/07 07:40:54;;;;;;;1.50;1.02;;;;;24.40;102545.00;;;;5048036;28;20188;-77
2022/08/07 07:43:23;;;;;;;2.65;1.40;;;;;24.50;102547.00;;;;5048314;28;20231;-78
2022/08/07 07:45:52;;;;;;;2.80;1.10;;;;;24.60;102548.00;;;;5047697;28;20203;-77
2022/08/07 07:48:22;;;;;;;1.08;0.98;;;;;24.70;102544.00;;;;5047700;28;20202;-78
2022/08/07 07:50:54;;;;;;;3.63;1.52;;;;;24.80;102547.00;;;;5048175;28;20199;-78
2022/08/07 07:53:23;;;;;;;1.80;1.00;;;;;25.00;102544.00;;;;5047257;28;20235;-78
2022/08/07 07:55:52;;;;;;;2.13;1.10;;;;;25.10;102540.00;;;;5043842;28;20207;-77
2022/08/07 07:58:22;;;;;;;1.45;1.17;;;;;25.20;102538.00;;;;5047672;28;20713;-77
2022/08/07 08:00:53;;;;;;;1.33;1.10;;;;;25.30;102533.00;;;;5047690;28;20200;-77
2022/08/07 08:03:23;;;;;;;2.55;1.45;;;;;25.40;102538.00;;;;5047603;28;20243;-78
2022/08/07 08:05:52;;;;;;;1.50;1.15;;;;;25.50;102531.00;;;;5046748;28;20776;-78
2022/08/07 08:08:20;;;;;;;1.65;1.30;;;;;25.60;102535.00;;;;5047848;28;20203;-77
2022/08/07 08:10:48;;;;;;;2.13;1.30;;;;;25.70;102528.00;;;;5048095;28;20203;-78
2022/08/07 08:13:16;;;;;;;1.40;1.13;;;;;25.80;102533.00;;;;5044648;28;20192;-78
2022/08/07 08:15:48;;;;;;;1.67;1.30;;;;;25.90;102526.00;;;;5048266;28;20203;-77
2022/08/07 08:18:16;;;;;;;1.73;1.23;;;;;26.10;102533.00;;;;5038466;28;20200;-78
2022/08/07 08:20:45;;;;;;;1.52;1.13;;;;;26.20;102523.00;;;;5043146;28;20207;-77
2022/08/07 08:28:51;;;;;;;1.50;1.33;;;;;26.60;102521.00;;;;5029799;28;20203;-78
2022/08/07 08:31:23;;;;;;;1.77;1.60;;;;;26.70;102523.00;;;;5059759;28;20200;-78
2022/08/07 08:33:53;;;;;;;2.00;1.15;;;;;26.80;102509.00;;;;5047504;28;20196;-78
2022/08/07 08:36:24;;;;;;;1.83;1.38;;;;;26.90;102514.00;;;;5047761;28;20241;-78
2022/08/07 08:38:53;;;;;;;1.60;1.20;;;;;27.00;102506.00;;;;5047332;28;20206;-78
2022/08/07 08:41:27;;;;;;;1.50;1.33;;;;;27.10;102513.00;;;;5042105;28;20298;-78
2022/08/07 08:44:02;;;;;;;2.20;1.23;;;;;27.20;102518.00;;;;5033474;28;20702;-78
2022/08/07 08:46:39;;;;;;;1.63;1.10;;;;;27.40;102515.00;;;;5033615;28;20204;-78
2022/08/07 08:49:13;;;;;;;2.83;1.88;;;;;27.50;102513.00;;;;5033642;28;20214;-78
2022/08/07 08:51:51;;;;;;;2.03;1.38;;;;;27.60;102513.00;;;;5051215;28;20202;-78
2022/08/07 08:54:28;;;;;;;1.70;1.25;;;;;27.70;102516.00;;;;5051182;28;20863;-78
2022/08/07 08:57:01;;;;;;;2.10;1.55;;;;;27.80;102513.00;;;;5050887;28;20678;-78
2022/08/07 08:59:34;;;;;;;1.27;1.10;;;;;27.90;102514.00;;;;5050571;28;20198;-78
2022/08/07 09:02:13;;;;;;;1.30;1.20;;;;;28.00;102523.00;;;;5051145;28;20226;-78
2022/08/07 09:04:47;;;;;;;3.72;1.67;;;;;28.10;102517.00;;;;5039878;28;20196;-78
2022/08/07 09:07:19;;;;;;;2.08;1.20;;;;;28.20;102512.00;;;;5051066;28;20223;-78
2022/08/07 09:09:58;;;;;;;1.13;1.02;;;;;28.10;102512.00;;;;5043759;28;20192;-78
2022/08/07 09:12:39;;;;;;;1.45;0.95;;;;;28.10;102519.00;;;;5044027;28;20206;-79
2022/08/07 09:15:23;;;;;;;1.63;1.13;;;;;28.10;102515.00;;;;5051256;28;20196;-78
2022/08/07 09:18:14;;;;;;;1.77;1.35;;;;;28.10;102509.00;;;;5051637;28;20203;-78
2022/08/07 09:20:50;;;;;;;2.38;1.42;;;;;28.20;102510.00;;;;5049786;28;20204;-79
2022/08/07 09:23:41;;;;;;;1.60;1.23;;;;;28.20;102507.00;;;;5050281;28;20316;-79
2022/08/07 09:26:18;;;;;;;4.57;1.20;;;;;28.30;102505.00;;;;5050168;28;20207;-79
2022/08/07 09:28:58;;;;;;;1.40;1.23;;;;;28.40;102506.00;;;;5051864;28;20398;-79
2022/08/07 09:31:36;;;;;;;1.98;0.80;;;;;28.40;102504.00;;;;5048917;28;20831;-79
2022/08/07 09:34:18;;;;;;;1.13;0.95;;;;;28.50;102502.00;;;;5050475;28;20199;-79
2022/08/07 09:36:55;;;;;;;1.17;0.93;;;;;28.60;102503.00;;;;5045530;28;20247;-79
2022/08/07 09:39:35;;;;;;;1.20;1.00;;;;;28.70;102494.00;;;;5050613;28;20199;-79
2022/08/07 09:42:11;;;;;;;1.85;1.20;;;;;28.90;102494.00;;;;5050434;28;20223;-79
2022/08/07 09:44:48;;;;;;;1.65;1.10;;;;;29.10;102502.00;;;;5049892;28;20697;-79
2022/08/07 09:47:27;;;;;;;1.13;1.00;;;;;29.20;102497.00;;;;5050276;28;20677;-76
2022/08/07 09:50:03;;;;;;;1.50;1.20;;;;;29.40;102495.00;;;;5051044;28;20622;-76
2022/08/07 09:52:39;;;;;;;1.23;0.80;;;;;29.50;102497.00;;;;5050479;28;20207;-76
2022/08/07 09:55:13;;;;;;;1.40;1.02;;;;;29.70;102495.00;;;;5047654;28;20214;-77
2022/08/07 09:58:19;;;;;;;1.10;1.00;;;;;29.70;102488.00;;;;5049315;28;20226;-76
2022/08/07 10:01:01;;;;;;;0.82;0.77;;;;;29.90;102487.00;;;;5048471;28;20191;-77
2022/08/07 10:03:54;;;;;;;1.77;1.08;;;;;30.00;102491.00;;;;5049737;28;20717;-78
2022/08/07 10:07:03;;;;;;;1.20;0.85;;;;;30.00;102482.00;;;;5040345;28;20192;-77
2022/08/07 10:09:46;;;;;;;1.17;0.95;;;;;30.10;102472.00;;;;5016717;28;20342;-77
2022/08/07 10:12:28;;;;;;;1.10;0.90;;;;;30.20;102478.00;;;;5041636;28;20204;-78
2022/08/07 10:15:35;;;;;;;1.75;0.90;;;;;30.10;102471.00;;;;5049742;28;20206;-78
2022/08/07 10:18:32;;;;;;;1.55;1.10;;;;;30.10;102468.00;;;;5049731;28;20686;-77
2022/08/07 10:21:24;;;;;;;1.00;0.90;;;;;30.10;102468.00;;;;5050195;28;20210;-78
2022/08/07 10:24:11;;;;;;;0.93;0.85;;;;;30.20;102462.00;;;;5049968;28;20583;-78
2022/08/07 10:26:51;;;;;;;1.33;1.20;;;;;30.20;102462.00;;;;5047293;28;20199;-77
2022/08/07 10:29:41;;;;;;;0.93;0.82;;;;;30.20;102459.00;;;;5046227;28;20208;-78
2022/08/07 10:32:31;;;;;;;1.00;0.90;;;;;30.20;102452.00;;;;5029967;28;20205;-78
2022/08/07 10:35:11;;;;;;;0.93;0.70;;;;;30.20;102457.00;;;;5039843;28;20203;-78
2022/08/07 10:37:51;;;;;;;1.35;0.73;;;;;30.30;102458.00;;;;5049049;28;20563;-78
2022/08/07 10:40:22;;;;;;;0.85;0.85;;;;;30.30;102460.00;;;;5048434;28;20199;-78
2022/08/07 10:43:01;;;;;;;0.98;0.60;;;;;30.30;102455.00;;;;5049447;28;20216;-78
2022/08/07 10:45:32;;;;;;;1.17;0.70;;;;;30.40;102449.00;;;;5040356;28;20210;-77
2022/08/07 10:48:12;;;;;;;0.93;0.70;;;;;30.40;102449.00;;;;5047798;28;20658;-77
2022/08/07 10:50:43;;;;;;;1.20;0.93;;;;;30.60;102442.00;;;;5049157;28;20202;-77
2022/08/07 10:53:16;;;;;;;0.85;0.70;;;;;30.60;102438.00;;;;5049437;28;20257;-78
2022/08/07 10:55:49;;;;;;;1.00;0.70;;;;;30.70;102444.00;;;;5048460;28;20509;-77
2022/08/07 10:58:31;;;;;;;0.90;0.70;;;;;30.70;102444.00;;;;5049292;28;20308;-77
2022/08/07 11:01:07;;;;;;;0.82;0.70;;;;;30.80;102432.00;;;;5048893;28;20200;-78
2022/08/07 11:03:41;;;;;;;1.23;0.95;;;;;30.80;102437.00;;;;5031854;28;20791;-77
2022/08/07 11:06:16;;;;;;;1.15;1.05;;;;;30.80;102425.00;;;;5048680;28;20195;-77
2022/08/07 11:08:52;;;;;;;1.40;0.73;;;;;30.80;102425.00;;;;5041697;28;20196;-77
2022/08/07 11:11:25;;;;;;;1.23;1.10;;;;;30.80;102423.00;;;;5047722;28;20210;-78
2022/08/07 11:13:59;;;;;;;1.10;0.70;;;;;30.90;102414.00;;;;5029795;28;20262;-77
2022/08/07 11:16:32;;;;;;;0.52;0.52;;;;;31.00;102420.00;;;;5045220;28;20202;-77
2022/08/07 11:19:05;;;;;;;1.05;0.80;;;;;31.00;102413.00;;;;5044419;28;20203;-77
2022/08/07 11:21:39;;;;;;;1.42;0.90;;;;;31.00;102402.00;;;;5044101;28;20191;-77
2022/08/07 11:24:12;;;;;;;1.27;0.80;;;;;31.00;102408.00;;;;5032979;28;20222;-77
2022/08/07 11:26:47;;;;;;;1.05;0.88;;;;;31.00;102398.00;;;;5044606;28;20195;-77
2022/08/07 11:29:25;;;;;;;1.15;0.90;;;;;31.00;102404.00;;;;5048336;28;20579;-77
2022/08/07 11:31:57;;;;;;;1.42;0.98;;;;;31.00;102399.00;;;;5048025;28;20245;-78
2022/08/07 11:34:31;;;;;;;1.10;0.85;;;;;31.00;102399.00;;;;5047609;28;20204;-77
2022/08/07 11:37:04;;;;;;;1.20;0.77;;;;;31.00;102399.00;;;;5045357;28;20202;-77
2022/08/07 11:39:54;;;;;;;0.77;0.70;;;;;30.90;102397.00;;;;5048279;28;20194;-77
2022/08/07 11:42:29;;;;;;;0.90;0.77;;;;;31.00;102385.00;;;;5046649;28;20196;-77
2022/08/07 11:45:12;;;;;;;2.05;0.90;;;;;31.00;102390.00;;;;5047530;28;20195;-78
2022/08/07 11:48:03;;;;;;;0.90;0.70;;;;;30.90;102383.00;;;;5045430;28;20253;-78
2022/08/07 11:50:43;;;;;;;0.90;0.55;;;;;31.00;102372.00;;;;5047607;28;20204;-77
2022/08/07 11:53:19;;;;;;;0.60;0.60;;;;;31.00;102376.00;;;;5041490;28;20211;-78
2022/08/07 11:56:00;;;;;;;1.55;0.77;;;;;31.00;102371.00;;;;5045396;28;20207;-78
2022/08/07 11:58:44;;;;;;;0.70;0.70;;;;;31.00;102366.00;;;;5047242;28;20223;-77
2022/08/07 12:01:30;;;;;;;2.03;0.88;;;;;31.00;102369.00;;;;5047635;28;20188;-77
2022/08/07 12:04:16;;;;;;;1.40;0.70;;;;;31.00;102362.00;;;;5047398;28;20223;-77
2022/08/07 12:06:49;;;;;;;1.73;0.70;;;;;31.10;102368.00;;;;5046237;28;20203;-78
2022/08/07 12:09:24;;;;;;;0.70;0.68;;;;;31.20;102366.00;;;;5044162;28;20188;-78
2022/08/07 12:11:58;;;;;;;1.30;0.75;;;;;31.10;102361.00;;;;5046432;28;20191;-78
2022/08/07 12:14:30;;;;;;;0.73;0.63;;;;;31.10;102363.00;;;;5048085;28;20206;-78
2022/08/07 12:17:05;;;;;;;2.10;0.73;;;;;31.10;102360.00;;;;5047206;28;20192;-77
2022/08/07 12:19:43;;;;;;;1.08;0.80;;;;;31.10;102362.00;;;;5046088;28;20203;-77
2022/08/07 12:22:14;;;;;;;1.58;0.90;;;;;31.20;102367.00;;;;5039473;28;20641;-77
2022/08/07 12:27:43;;;;;;;1.10;1.00;;;;;31.20;102370.00;;;;5015476;28;20211;-77
2022/08/07 12:30:12;;;;;;;1.08;0.85;;;;;31.20;102372.00;;;;5032204;28;20230;-78
2022/08/07 12:32:47;;;;;;;0.80;0.73;;;;;31.10;102363.00;;;;5043127;28;20210;-77
2022/08/07 12:35:16;;;;;;;0.70;0.70;;;;;31.10;102363.00;;;;5041545;28;20211;-77
2022/08/07 12:37:48;;;;;;;0.95;0.60;;;;;31.00;102363.00;;;;5041571;28;20578;-78
2022/08/07 12:40:20;;;;;;;0.75;0.73;;;;;31.00;102362.00;;;;5031935;28;20208;-77
2022/08/07 12:42:51;;;;;;;1.05;0.80;;;;;31.00;102363.00;;;;5043386;28;20261;-77